Time;durP1;ratioP1;P1;durP2;ratioP2;P2;SDS_P1;SDS_P2;PMS_P1;PMS_P2;Temp;Humidity;BMP_temperature;BMP_pressure;BME280_temperature;BME280_humidity;BME280_pressure;Samples;Min_cycle;Max_cycle;Signal;HPM_P1;HPM_P2
2021/01/21 00:00:18;;;;;;;2.53;1.80;;;7.20;99.90;;;;;;5059938;28;20192;-76
2021/01/21 00:02:44;;;;;;;1.60;1.50;;;7.20;99.90;;;;;;5064122;28;20633;-76
2021/01/21 00:05:09;;;;;;;2.17;1.97;;;7.30;99.90;;;;;;5067184;28;20242;-76
2021/01/21 00:07:35;;;;;;;2.13;1.37;;;7.30;99.90;;;;;;5068387;28;20189;-76
2021/01/21 00:10:00;;;;;;;6.50;2.03;;;7.20;99.90;;;;;;5069180;28;20494;-76
2021/01/21 00:12:26;;;;;;;2.50;1.60;;;7.20;99.90;;;;;;5062966;28;20191;-76
2021/01/21 00:14:51;;;;;;;2.40;1.87;;;7.20;99.90;;;;;;5068153;28;20206;-76
2021/01/21 00:17:17;;;;;;;2.07;1.87;;;7.10;99.90;;;;;;5062614;28;20235;-76
2021/01/21 00:19:42;;;;;;;2.53;2.30;;;7.00;99.90;;;;;;5061928;28;20181;-76
2021/01/21 00:22:08;;;;;;;4.00;2.43;;;7.00;99.90;;;;;;5063575;28;20203;-75
2021/01/21 00:24:33;;;;;;;2.10;1.90;;;7.00;99.90;;;;;;5064307;28;20295;-76
2021/01/21 00:26:59;;;;;;;2.20;2.00;;;6.90;99.90;;;;;;5068925;28;20614;-76
2021/01/21 00:29:25;;;;;;;2.93;2.13;;;7.00;99.90;;;;;;5067035;28;20212;-76
2021/01/21 00:31:51;;;;;;;3.00;2.40;;;6.90;99.90;;;;;;5067936;28;20692;-75
2021/01/21 00:34:17;;;;;;;1.93;1.73;;;6.90;99.90;;;;;;5067460;28;20428;-76
2021/01/21 00:36:42;;;;;;;3.70;2.17;;;6.90;99.90;;;;;;5068204;28;20279;-76
2021/01/21 00:39:08;;;;;;;4.93;2.20;;;6.90;99.90;;;;;;5067973;28;20191;-76
2021/01/21 00:41:33;;;;;;;1.70;1.60;;;6.90;99.90;;;;;;5068213;28;20573;-75
2021/01/21 00:43:59;;;;;;;2.93;2.43;;;6.90;99.90;;;;;;5067966;28;20181;-76
2021/01/21 00:46:24;;;;;;;3.87;1.67;;;6.90;99.90;;;;;;5066800;28;20197;-76
2021/01/21 00:48:50;;;;;;;2.07;1.87;;;6.90;99.90;;;;;;5065875;28;20721;-76
2021/01/21 00:51:15;;;;;;;2.00;1.43;;;6.90;99.90;;;;;;5066091;28;20203;-77
2021/01/21 00:53:41;;;;;;;3.07;1.73;;;6.90;99.90;;;;;;5063119;28;20198;-76
2021/01/21 00:56:06;;;;;;;2.77;1.33;;;6.90;99.90;;;;;;5064155;28;20207;-76
2021/01/21 00:58:32;;;;;;;2.47;1.83;;;6.90;99.90;;;;;;5067869;28;20181;-75
2021/01/21 01:00:57;;;;;;;3.33;1.90;;;6.90;99.90;;;;;;5066822;28;20212;-75
2021/01/21 01:03:23;;;;;;;2.47;1.87;;;6.90;99.90;;;;;;5067656;28;20201;-75
2021/01/21 01:05:48;;;;;;;4.10;2.07;;;7.00;99.90;;;;;;5065361;28;20228;-75
2021/01/21 01:08:14;;;;;;;3.33;1.70;;;7.00;99.90;;;;;;5067553;28;20545;-75
2021/01/21 01:10:39;;;;;;;20.83;4.23;;;7.00;99.90;;;;;;5066042;28;20193;-76
2021/01/21 01:13:05;;;;;;;5.10;1.37;;;7.10;99.90;;;;;;5066703;28;20181;-76
2021/01/21 01:15:33;;;;;;;3.60;1.57;;;7.10;99.90;;;;;;5067347;28;20222;-75
2021/01/21 01:17:59;;;;;;;3.37;2.17;;;7.20;99.90;;;;;;5063684;28;20176;-77
2021/01/21 01:20:25;;;;;;;1.90;1.70;;;7.20;99.90;;;;;;5062878;28;20432;-77
2021/01/21 01:22:52;;;;;;;1.60;1.27;;;7.30;99.90;;;;;;5057445;28;20550;-76
2021/01/21 01:25:18;;;;;;;1.47;1.37;;;7.30;99.90;;;;;;5067383;28;20209;-77
2021/01/21 01:27:44;;;;;;;3.00;1.50;;;7.30;99.90;;;;;;5063141;28;20424;-77
2021/01/21 01:30:11;;;;;;;1.30;1.13;;;7.30;99.90;;;;;;5062529;28;20419;-77
2021/01/21 01:32:37;;;;;;;1.00;0.93;;;7.30;99.90;;;;;;5064336;28;20407;-77
2021/01/21 01:35:04;;;;;;;2.10;1.20;;;7.40;99.90;;;;;;5061123;28;20453;-77
2021/01/21 01:37:29;;;;;;;5.20;1.33;;;7.40;99.90;;;;;;5062250;28;20191;-77
2021/01/21 01:39:55;;;;;;;2.67;1.40;;;7.50;99.90;;;;;;5061023;28;20450;-77
2021/01/21 01:42:20;;;;;;;1.27;1.10;;;7.60;99.90;;;;;;5062668;28;20197;-77
2021/01/21 01:44:46;;;;;;;1.57;1.47;;;7.70;99.90;;;;;;5063053;28;20197;-77
2021/01/21 01:47:11;;;;;;;1.00;0.87;;;7.80;99.90;;;;;;5060235;28;20174;-76
2021/01/21 01:49:38;;;;;;;0.90;0.90;;;7.90;99.90;;;;;;5063996;28;20211;-77
2021/01/21 01:52:03;;;;;;;0.90;0.80;;;8.00;99.90;;;;;;5058577;28;20569;-77
2021/01/21 01:54:29;;;;;;;1.70;0.87;;;8.10;99.90;;;;;;5060462;28;20834;-77
2021/01/21 01:56:57;;;;;;;1.90;0.90;;;8.20;99.90;;;;;;5063030;28;20427;-76
2021/01/21 01:59:23;;;;;;;1.20;0.70;;;8.30;99.90;;;;;;5060538;28;20531;-76
2021/01/21 02:01:49;;;;;;;1.17;0.90;;;8.40;99.90;;;;;;5062141;28;20515;-76
2021/01/21 02:04:15;;;;;;;2.63;1.53;;;8.40;99.90;;;;;;5062828;28;20225;-77
2021/01/21 02:06:40;;;;;;;1.57;1.07;;;8.50;99.90;;;;;;5061504;28;20817;-77
2021/01/21 02:09:06;;;;;;;1.57;0.87;;;8.60;99.90;;;;;;5061096;28;20641;-77
2021/01/21 02:12:03;;;;;;;0.90;0.77;;;8.60;99.90;;;;;;5062415;28;20239;-76
2021/01/21 02:14:45;;;;;;;0.77;0.70;;;8.70;99.90;;;;;;5060105;28;20509;-76
2021/01/21 02:17:40;;;;;;;2.50;1.10;;;8.80;99.90;;;;;;5062529;28;20520;-77
2021/01/21 02:20:49;;;;;;;2.53;1.37;;;8.80;99.90;;;;;;5060090;28;20421;-77
2021/01/21 02:23:39;;;;;;;1.10;1.10;;;8.80;99.90;;;;;;5047551;28;20801;-77
2021/01/21 02:26:15;;;;;;;2.17;1.07;;;8.90;99.90;;;;;;5059690;28;21000;-77
2021/01/21 02:29:10;;;;;;;0.97;0.97;;;9.00;99.90;;;;;;5061030;28;20422;-76
2021/01/21 02:31:56;;;;;;;0.80;0.80;;;9.00;99.90;;;;;;5059574;28;20430;-77
2021/01/21 02:34:35;;;;;;;0.77;0.60;;;8.90;99.90;;;;;;5063035;28;20427;-76
2021/01/21 02:37:01;;;;;;;2.77;1.07;;;8.90;99.90;;;;;;5058492;28;20426;-77
2021/01/21 02:39:29;;;;;;;3.53;0.93;;;8.90;99.90;;;;;;5063086;28;20429;-77
2021/01/21 02:41:54;;;;;;;1.00;1.00;;;8.90;99.90;;;;;;5061843;28;20458;-77
2021/01/21 02:44:20;;;;;;;1.13;0.70;;;8.90;99.90;;;;;;5063621;28;20448;-77
2021/01/21 02:46:48;;;;;;;1.20;0.70;;;8.90;99.90;;;;;;5058678;28;20176;-77
2021/01/21 02:49:13;;;;;;;1.13;0.93;;;8.90;99.90;;;;;;5061651;28;20683;-77
2021/01/21 02:52:00;;;;;;;0.80;0.80;;;8.90;99.90;;;;;;5062188;28;20462;-77
2021/01/21 02:54:45;;;;;;;1.43;0.90;;;8.90;99.90;;;;;;5059072;28;20418;-77
2021/01/21 02:57:38;;;;;;;2.93;0.83;;;8.80;99.90;;;;;;5058091;28;20895;-77
2021/01/21 03:00:09;;;;;;;0.70;0.70;;;8.80;99.90;;;;;;5061357;28;20427;-77
2021/01/21 03:02:45;;;;;;;0.90;0.77;;;8.80;99.90;;;;;;5059895;28;20472;-77
2021/01/21 03:05:14;;;;;;;4.83;1.20;;;8.80;99.90;;;;;;5061343;28;20448;-77
2021/01/21 03:07:40;;;;;;;0.70;0.70;;;8.70;99.90;;;;;;5061046;28;20433;-77
2021/01/21 03:10:07;;;;;;;0.93;0.90;;;8.80;99.90;;;;;;5056696;28;20445;-77
2021/01/21 03:12:33;;;;;;;1.80;0.80;;;8.80;99.90;;;;;;5060706;28;20187;-77
2021/01/21 03:14:58;;;;;;;2.07;0.63;;;8.80;99.90;;;;;;5057542;28;20451;-77
2021/01/21 03:17:26;;;;;;;0.80;0.80;;;8.80;99.90;;;;;;5060935;28;20187;-77
2021/01/21 03:19:53;;;;;;;1.77;0.77;;;8.80;99.90;;;;;;5064830;28;20238;-77
2021/01/21 03:22:19;;;;;;;6.47;1.27;;;8.90;99.90;;;;;;5060694;28;20468;-77
2021/01/21 03:24:45;;;;;;;1.93;0.87;;;9.00;99.90;;;;;;5055760;28;20461;-77
2021/01/21 03:27:10;;;;;;;0.70;0.70;;;8.90;99.90;;;;;;5062936;28;20429;-77
2021/01/21 03:29:36;;;;;;;0.97;0.90;;;8.90;99.90;;;;;;5061175;28;20438;-77
2021/01/21 03:32:02;;;;;;;1.50;1.03;;;8.90;99.90;;;;;;5056987;28;20212;-77
2021/01/21 03:34:27;;;;;;;0.60;0.60;;;8.90;99.90;;;;;;5062609;28;20213;-77
2021/01/21 03:36:53;;;;;;;9.10;1.30;;;8.90;99.90;;;;;;5061905;28;20190;-77
2021/01/21 03:39:19;;;;;;;1.37;0.80;;;8.90;99.90;;;;;;5064235;28;21581;-77
2021/01/21 03:41:44;;;;;;;1.13;0.90;;;8.90;99.90;;;;;;5068032;28;20286;-77
2021/01/21 03:44:10;;;;;;;1.67;0.80;;;9.00;99.90;;;;;;5067068;28;20867;-77
2021/01/21 03:46:35;;;;;;;1.43;0.90;;;9.00;99.90;;;;;;5065669;28;20742;-77
2021/01/21 03:49:01;;;;;;;0.90;0.90;;;9.00;99.90;;;;;;5066430;28;20209;-77
2021/01/21 03:51:27;;;;;;;1.00;1.00;;;9.00;99.90;;;;;;5065245;28;20195;-77
2021/01/21 03:53:52;;;;;;;1.00;0.90;;;9.00;99.90;;;;;;5067340;28;20187;-77
2021/01/21 03:56:18;;;;;;;1.00;0.90;;;9.00;99.90;;;;;;5061551;28;20709;-77
2021/01/21 03:58:43;;;;;;;3.57;0.80;;;9.10;99.90;;;;;;5064460;28;20185;-77
2021/01/21 04:01:09;;;;;;;1.03;0.83;;;9.30;99.90;;;;;;5064494;28;20585;-77
2021/01/21 04:03:35;;;;;;;1.17;0.73;;;9.30;99.90;;;;;;5065404;28;20183;-77
2021/01/21 04:06:00;;;;;;;2.83;0.70;;;9.30;99.90;;;;;;5059634;28;20213;-77
2021/01/21 04:08:26;;;;;;;1.87;1.10;;;9.40;99.90;;;;;;5065514;28;20557;-77
2021/01/21 04:10:52;;;;;;;0.97;0.80;;;9.50;99.90;;;;;;5061839;28;20184;-76
2021/01/21 04:13:17;;;;;;;2.00;1.00;;;9.40;99.90;;;;;;5066894;28;20464;-77
2021/01/21 04:15:45;;;;;;;1.17;1.10;;;9.40;99.90;;;;;;5062333;28;20252;-77
2021/01/21 04:18:10;;;;;;;1.17;0.90;;;9.40;99.90;;;;;;5081206;28;20602;-77
2021/01/21 04:20:36;;;;;;;1.33;1.00;;;9.30;99.90;;;;;;5062891;28;20488;-77
2021/01/21 04:23:01;;;;;;;1.17;0.70;;;9.30;99.90;;;;;;5067346;28;20182;-77
2021/01/21 04:25:27;;;;;;;1.37;0.60;;;9.30;99.90;;;;;;5061759;28;20699;-77
2021/01/21 04:27:52;;;;;;;0.83;0.67;;;9.30;99.90;;;;;;5063937;28;20233;-77
2021/01/21 04:30:18;;;;;;;1.10;0.80;;;9.30;99.90;;;;;;5061532;28;20184;-77
2021/01/21 04:32:44;;;;;;;0.90;0.90;;;9.20;99.90;;;;;;5065712;28;20540;-77
2021/01/21 04:35:10;;;;;;;0.73;0.70;;;9.30;99.90;;;;;;5063857;28;20970;-76
2021/01/21 04:37:35;;;;;;;0.80;0.70;;;9.30;99.90;;;;;;5060315;28;20244;-77
2021/01/21 04:40:01;;;;;;;1.00;0.80;;;9.30;99.90;;;;;;5061227;28;20998;-77
2021/01/21 04:42:26;;;;;;;1.10;0.87;;;9.30;99.90;;;;;;5065660;28;20215;-77
2021/01/21 04:44:52;;;;;;;1.53;1.20;;;9.30;99.90;;;;;;5063658;28;20203;-77
2021/01/21 04:47:19;;;;;;;0.60;0.60;;;9.30;99.90;;;;;;5058883;28;20237;-77
2021/01/21 04:49:47;;;;;;;0.80;0.73;;;9.30;99.90;;;;;;5063445;28;20191;-77
2021/01/21 04:52:13;;;;;;;0.93;0.70;;;9.30;99.90;;;;;;5063615;28;20524;-77
2021/01/21 04:54:42;;;;;;;0.87;0.50;;;9.40;99.90;;;;;;5070287;28;20949;-77
2021/01/21 04:57:14;;;;;;;3.23;0.70;;;9.30;99.90;;;;;;5067457;28;20436;-77
2021/01/21 04:59:40;;;;;;;1.03;0.70;;;9.30;99.90;;;;;;5064010;28;20498;-78
2021/01/21 05:02:07;;;;;;;1.03;0.60;;;9.30;99.90;;;;;;5062227;28;20486;-77
2021/01/21 05:04:33;;;;;;;0.70;0.70;;;9.30;99.90;;;;;;5060642;28;20453;-77
2021/01/21 05:07:00;;;;;;;0.97;0.87;;;9.40;99.90;;;;;;5063919;28;20430;-77
2021/01/21 05:09:26;;;;;;;1.27;0.50;;;9.30;99.90;;;;;;5065979;28;20440;-77
2021/01/21 05:11:54;;;;;;;0.80;0.70;;;9.20;99.90;;;;;;5063749;28;20438;-76
2021/01/21 05:14:19;;;;;;;1.17;0.50;;;9.30;99.90;;;;;;5066300;28;20454;-77
2021/01/21 05:16:45;;;;;;;1.67;0.83;;;9.40;99.90;;;;;;5061333;28;20497;-77
2021/01/21 05:19:14;;;;;;;0.60;0.53;;;9.50;99.90;;;;;;5063077;28;20185;-77
2021/01/21 05:21:41;;;;;;;0.57;0.50;;;9.60;99.90;;;;;;5062764;28;20556;-77
2021/01/21 05:24:11;;;;;;;0.60;0.60;;;9.60;99.90;;;;;;5063205;28;20442;-77
2021/01/21 05:26:39;;;;;;;3.13;0.60;;;9.60;99.90;;;;;;5062883;28;20479;-77
2021/01/21 05:29:05;;;;;;;0.50;0.50;;;9.80;99.90;;;;;;5061813;28;20921;-77
2021/01/21 05:31:33;;;;;;;0.97;0.80;;;9.90;99.90;;;;;;5063009;28;20447;-77
2021/01/21 05:34:00;;;;;;;1.03;0.60;;;9.90;99.90;;;;;;5064722;28;20426;-77
2021/01/21 05:36:25;;;;;;;0.60;0.50;;;9.80;99.90;;;;;;5060433;28;20548;-77
2021/01/21 05:38:55;;;;;;;0.60;0.60;;;9.80;99.90;;;;;;5062076;28;21069;-77
2021/01/21 05:41:24;;;;;;;0.60;0.60;;;9.90;99.90;;;;;;5065829;28;20639;-77
2021/01/21 05:43:49;;;;;;;2.00;1.67;;;10.00;99.90;;;;;;5063116;28;20418;-77
2021/01/21 05:46:18;;;;;;;2.50;1.40;;;10.10;99.90;;;;;;5061912;28;20452;-77
2021/01/21 05:48:44;;;;;;;0.97;0.90;;;10.10;99.90;;;;;;5062788;28;20548;-77
2021/01/21 05:51:10;;;;;;;2.20;0.80;;;10.10;99.90;;;;;;5060149;28;20433;-77
2021/01/21 05:53:38;;;;;;;0.90;0.70;;;10.20;99.90;;;;;;5063523;28;20667;-77
2021/01/21 05:56:03;;;;;;;0.70;0.70;;;10.20;99.90;;;;;;5060286;28;20446;-77
2021/01/21 05:58:31;;;;;;;1.13;0.50;;;10.20;99.90;;;;;;5060550;28;20454;-77
2021/01/21 06:00:57;;;;;;;0.93;0.70;;;10.30;99.90;;;;;;5061826;28;20274;-77
2021/01/21 06:03:24;;;;;;;0.50;0.50;;;10.30;99.90;;;;;;5062343;28;20926;-77
2021/01/21 06:05:50;;;;;;;0.60;0.60;;;10.30;99.90;;;;;;5063045;28;20493;-77
2021/01/21 06:08:21;;;;;;;1.07;0.60;;;10.30;99.90;;;;;;5060555;28;20519;-77
2021/01/21 06:10:47;;;;;;;1.37;0.50;;;10.40;99.90;;;;;;5063506;28;20180;-77
2021/01/21 06:13:15;;;;;;;2.00;0.60;;;10.40;99.90;;;;;;5063734;28;20972;-77
2021/01/21 06:15:41;;;;;;;0.67;0.60;;;10.50;99.90;;;;;;5066644;28;20298;-77
2021/01/21 06:18:07;;;;;;;1.30;0.73;;;10.50;99.90;;;;;;5063342;28;20527;-77
2021/01/21 06:20:32;;;;;;;0.60;0.50;;;10.40;99.90;;;;;;5064266;28;20187;-77
2021/01/21 06:23:03;;;;;;;3.23;0.70;;;10.30;99.90;;;;;;5055795;28;20297;-77
2021/01/21 06:25:30;;;;;;;0.60;0.60;;;10.30;99.90;;;;;;5060777;28;20218;-77
2021/01/21 06:27:56;;;;;;;1.17;0.83;;;10.30;99.90;;;;;;5058665;28;20516;-78
2021/01/21 06:30:21;;;;;;;0.77;0.77;;;10.20;99.90;;;;;;5061668;28;20563;-78
2021/01/21 06:33:01;;;;;;;0.80;0.80;;;10.20;99.90;;;;;;5067547;28;20442;-77
2021/01/21 06:35:32;;;;;;;0.70;0.70;;;10.10;99.90;;;;;;5063573;28;20291;-77
2021/01/21 06:38:04;;;;;;;1.37;0.70;;;10.10;99.90;;;;;;5059672;28;20431;-77
2021/01/21 06:40:30;;;;;;;1.07;0.93;;;10.00;99.90;;;;;;5059841;28;20439;-77
2021/01/21 06:43:00;;;;;;;2.70;1.07;;;10.00;99.90;;;;;;5062457;28;20460;-74
2021/01/21 06:45:27;;;;;;;3.60;0.60;;;10.00;99.90;;;;;;5059725;28;20253;-74
2021/01/21 06:47:54;;;;;;;0.93;0.70;;;9.90;99.90;;;;;;5060747;28;20512;-74
2021/01/21 06:50:19;;;;;;;2.40;0.80;;;10.00;99.90;;;;;;5059569;28;20442;-74
2021/01/21 06:52:46;;;;;;;0.70;0.60;;;10.00;99.90;;;;;;5062780;28;20437;-75
2021/01/21 06:55:13;;;;;;;1.20;0.60;;;10.10;99.90;;;;;;5062592;28;20336;-74
2021/01/21 06:57:38;;;;;;;2.10;0.87;;;10.10;99.90;;;;;;5060162;28;20443;-74
2021/01/21 07:00:15;;;;;;;0.70;0.70;;;10.10;99.90;;;;;;5060071;28;20420;-74
2021/01/21 07:02:45;;;;;;;1.50;1.27;;;10.00;99.90;;;;;;5057920;28;20226;-73
2021/01/21 07:05:22;;;;;;;0.73;0.73;;;10.10;99.90;;;;;;5060739;28;20457;-74
2021/01/21 07:07:56;;;;;;;0.70;0.60;;;10.10;99.90;;;;;;5059233;28;20446;-74
2021/01/21 07:10:26;;;;;;;2.37;0.67;;;10.10;99.90;;;;;;5058497;28;20442;-74
2021/01/21 07:12:53;;;;;;;1.20;0.73;;;10.10;99.90;;;;;;5059238;28;20426;-73
2021/01/21 07:15:27;;;;;;;2.10;0.70;;;10.10;99.90;;;;;;5061078;28;20442;-74
2021/01/21 07:17:59;;;;;;;5.53;0.90;;;10.10;99.90;;;;;;5058987;28;20434;-74
2021/01/21 07:20:25;;;;;;;0.80;0.70;;;10.10;99.90;;;;;;5062669;28;20923;-74
2021/01/21 07:22:50;;;;;;;0.83;0.70;;;10.10;99.90;;;;;;5058022;28;20483;-73
2021/01/21 07:25:16;;;;;;;1.13;0.80;;;10.10;99.90;;;;;;5060990;28;20213;-74
2021/01/21 07:27:44;;;;;;;2.90;0.93;;;10.10;99.90;;;;;;5060416;28;20180;-75
2021/01/21 07:30:15;;;;;;;1.67;0.80;;;10.10;99.90;;;;;;5060454;28;20652;-74
2021/01/21 07:32:41;;;;;;;2.23;0.60;;;10.20;99.90;;;;;;5060606;28;20421;-74
2021/01/21 07:35:33;;;;;;;0.60;0.60;;;10.10;99.90;;;;;;5059741;28;20440;-74
2021/01/21 07:37:59;;;;;;;0.70;0.60;;;10.10;99.90;;;;;;5058279;28;20178;-75
2021/01/21 07:40:41;;;;;;;0.77;0.73;;;10.20;99.90;;;;;;5060732;28;20465;-75
2021/01/21 07:43:07;;;;;;;1.20;0.60;;;10.20;99.90;;;;;;5058825;28;20442;-74
2021/01/21 07:45:33;;;;;;;0.50;0.50;;;10.20;99.90;;;;;;5061807;28;20454;-74
2021/01/21 07:48:21;;;;;;;0.63;0.60;;;10.20;99.90;;;;;;5058611;28;20192;-73
2021/01/21 07:50:47;;;;;;;0.80;0.70;;;10.20;99.90;;;;;;5059671;28;20654;-73
2021/01/21 07:53:24;;;;;;;0.50;0.50;;;10.30;99.90;;;;;;5060334;28;20517;-75
2021/01/21 07:55:51;;;;;;;0.50;0.50;;;10.30;99.90;;;;;;5061217;28;20503;-73
2021/01/21 07:58:19;;;;;;;1.00;0.50;;;10.40;99.90;;;;;;5059358;28;20469;-75
2021/01/21 08:00:50;;;;;;;1.90;0.50;;;10.40;99.90;;;;;;5059301;28;20434;-73
2021/01/21 08:03:29;;;;;;;1.03;0.93;;;10.50;99.90;;;;;;5060306;28;20459;-74
2021/01/21 08:06:13;;;;;;;0.73;0.57;;;10.60;99.90;;;;;;5061929;28;20828;-74
2021/01/21 08:08:41;;;;;;;0.70;0.60;;;10.60;99.90;;;;;;5059459;28;20934;-74
2021/01/21 08:11:09;;;;;;;0.67;0.67;;;10.70;99.90;;;;;;5058258;28;20414;-74
2021/01/21 08:13:35;;;;;;;0.50;0.50;;;10.70;99.90;;;;;;5060255;28;20494;-73
2021/01/21 08:16:02;;;;;;;1.17;0.70;;;10.70;99.90;;;;;;5058578;28;20948;-74
2021/01/21 08:18:28;;;;;;;0.97;0.60;;;10.70;99.90;;;;;;5062920;28;20184;-73
2021/01/21 08:20:54;;;;;;;0.87;0.57;;;10.80;99.90;;;;;;5058552;28;20422;-72
2021/01/21 08:23:19;;;;;;;0.50;0.50;;;10.80;99.90;;;;;;5064669;28;20777;-73
2021/01/21 08:25:50;;;;;;;2.03;0.50;;;10.90;99.90;;;;;;5063579;28;20215;-74
2021/01/21 08:28:20;;;;;;;0.63;0.63;;;10.90;99.90;;;;;;5063908;28;20179;-73
2021/01/21 08:30:49;;;;;;;2.00;0.67;;;11.00;99.90;;;;;;5063284;28;20418;-73
2021/01/21 08:33:26;;;;;;;0.50;0.40;;;11.00;99.90;;;;;;5064002;28;20432;-72
2021/01/21 08:35:55;;;;;;;0.70;0.60;;;11.10;99.90;;;;;;5062329;28;20712;-72
2021/01/21 08:38:27;;;;;;;1.23;0.60;;;11.10;99.90;;;;;;5064386;28;20783;-73
2021/01/21 08:40:54;;;;;;;0.50;0.50;;;11.10;99.90;;;;;;5063030;28;20423;-73
2021/01/21 08:43:21;;;;;;;0.93;0.50;;;11.10;99.90;;;;;;5065900;28;20466;-73
2021/01/21 08:45:47;;;;;;;2.50;0.50;;;11.10;99.90;;;;;;5065486;28;20505;-73
2021/01/21 08:48:42;;;;;;;1.90;0.80;;;11.20;99.90;;;;;;5064601;28;20947;-72
2021/01/21 08:51:29;;;;;;;0.70;0.53;;;11.20;99.90;;;;;;5055230;28;20204;-73
2021/01/21 08:54:18;;;;;;;1.00;1.00;;;11.30;99.90;;;;;;5063664;28;20434;-74
2021/01/21 08:57:03;;;;;;;0.93;0.80;;;11.30;99.90;;;;;;5058786;28;20465;-72
2021/01/21 08:59:30;;;;;;;0.60;0.60;;;11.20;99.90;;;;;;5061428;28;20425;-73
2021/01/21 09:01:57;;;;;;;0.60;0.60;;;11.30;99.90;;;;;;5062217;28;20880;-72
2021/01/21 09:04:30;;;;;;;0.60;0.57;;;11.30;99.90;;;;;;5062356;28;20519;-71
2021/01/21 09:06:59;;;;;;;1.57;0.90;;;11.40;99.90;;;;;;5067958;28;20442;-73
2021/01/21 09:09:36;;;;;;;0.73;0.73;;;11.50;99.90;;;;;;5070056;28;20503;-73
2021/01/21 09:12:24;;;;;;;0.90;0.60;;;11.60;99.90;;;;;;5066785;28;20436;-73
2021/01/21 09:15:02;;;;;;;0.70;0.60;;;11.60;99.90;;;;;;5063231;28;20455;-72
2021/01/21 09:17:27;;;;;;;0.77;0.60;;;12.00;99.90;;;;;;5061447;28;20840;-73
2021/01/21 09:19:53;;;;;;;0.50;0.50;;;12.20;99.90;;;;;;5060039;28;20430;-73
2021/01/21 09:22:22;;;;;;;4.40;0.60;;;12.40;99.90;;;;;;5064534;28;20235;-73
2021/01/21 09:24:55;;;;;;;2.03;0.70;;;12.70;99.90;;;;;;5064856;28;20239;-72
2021/01/21 09:27:22;;;;;;;0.83;0.60;;;13.10;99.90;;;;;;5065052;28;21233;-72
2021/01/21 09:29:53;;;;;;;1.63;0.50;;;13.60;99.90;;;;;;5065131;28;20431;-72
2021/01/21 09:32:20;;;;;;;1.23;0.90;;;14.20;99.90;;;;;;5064368;28;20433;-73
2021/01/21 09:34:58;;;;;;;2.93;0.80;;;14.20;99.90;;;;;;5063905;28;20469;-73
2021/01/21 09:37:26;;;;;;;1.43;0.60;;;13.60;99.90;;;;;;5065351;28;20526;-74
2021/01/21 09:39:52;;;;;;;2.20;0.73;;;13.50;99.90;;;;;;5062566;28;20420;-72
2021/01/21 09:42:18;;;;;;;0.70;0.60;;;13.90;99.90;;;;;;5062871;28;20467;-73
2021/01/21 09:44:44;;;;;;;1.43;0.50;;;14.10;99.90;;;;;;5065760;28;20941;-73
2021/01/21 09:47:09;;;;;;;0.60;0.60;;;14.20;99.90;;;;;;5063754;28;20430;-73
2021/01/21 09:49:35;;;;;;;0.80;0.67;;;14.40;99.90;;;;;;5060984;28;20194;-73
2021/01/21 09:52:01;;;;;;;0.60;0.57;;;14.80;99.90;;;;;;5065889;28;20177;-73
2021/01/21 09:54:27;;;;;;;0.60;0.50;;;14.90;99.90;;;;;;5060541;28;20205;-73
2021/01/21 09:56:54;;;;;;;1.70;0.60;;;15.10;99.90;;;;;;5065024;28;20183;-72
2021/01/21 09:59:20;;;;;;;0.60;0.50;;;15.30;99.90;;;;;;5068639;28;20454;-73
2021/01/21 10:01:47;;;;;;;1.27;0.60;;;15.20;99.90;;;;;;5063795;28;20466;-73
2021/01/21 10:04:13;;;;;;;1.67;0.60;;;14.90;99.90;;;;;;5064170;28;20422;-72
2021/01/21 10:06:38;;;;;;;0.90;0.60;;;14.90;99.90;;;;;;5064248;28;20542;-73
2021/01/21 10:09:04;;;;;;;1.40;0.50;;;15.10;99.90;;;;;;5067531;28;20459;-76
2021/01/21 10:11:29;;;;;;;0.60;0.43;;;15.40;99.90;;;;;;5063545;28;20184;-72
2021/01/21 10:13:55;;;;;;;0.97;0.60;;;15.50;99.90;;;;;;5063962;28;20177;-72
2021/01/21 10:16:21;;;;;;;1.27;0.60;;;15.60;99.90;;;;;;5067060;28;20216;-71
2021/01/21 10:18:46;;;;;;;0.90;0.50;;;15.70;99.90;;;;;;5059802;28;20192;-72
2021/01/21 10:21:12;;;;;;;0.93;0.50;;;15.70;99.90;;;;;;5063856;28;20454;-72
2021/01/21 10:23:37;;;;;;;1.20;0.60;;;15.90;99.90;;;;;;5060425;28;20207;-72
2021/01/21 10:26:03;;;;;;;0.70;0.60;;;16.10;99.90;;;;;;5062692;28;20676;-72
2021/01/21 10:28:28;;;;;;;2.97;0.60;;;16.00;99.90;;;;;;5062942;28;20199;-73
2021/01/21 10:30:54;;;;;;;0.63;0.53;;;16.40;99.90;;;;;;5060579;28;20176;-73
2021/01/21 10:33:20;;;;;;;0.50;0.50;;;16.80;99.90;;;;;;5065876;28;20547;-73
2021/01/21 10:35:45;;;;;;;0.70;0.63;;;16.80;99.90;;;;;;5061146;28;20205;-74
2021/01/21 10:38:11;;;;;;;0.67;0.60;;;16.60;99.90;;;;;;5064669;28;20642;-73
2021/01/21 10:40:36;;;;;;;1.70;0.80;;;15.60;99.90;;;;;;5062544;28;20320;-73
2021/01/21 10:43:02;;;;;;;0.80;0.77;;;15.50;99.90;;;;;;5064280;28;20743;-74
2021/01/21 10:45:27;;;;;;;1.50;0.80;;;15.70;99.90;;;;;;5062204;28;20231;-73
2021/01/21 10:47:53;;;;;;;0.60;0.50;;;15.90;99.90;;;;;;5067146;28;20514;-73
2021/01/21 10:50:18;;;;;;;1.33;0.80;;;16.20;99.90;;;;;;5061022;28;20184;-74
2021/01/21 10:52:44;;;;;;;1.17;0.80;;;16.00;99.90;;;;;;5066204;28;20215;-72
2021/01/21 10:55:10;;;;;;;0.60;0.60;;;15.60;99.90;;;;;;5061677;28;20619;-73
2021/01/21 10:57:35;;;;;;;0.77;0.67;;;15.10;99.90;;;;;;5062900;28;20180;-73
2021/01/21 11:00:01;;;;;;;1.43;0.60;;;14.70;99.90;;;;;;5059287;28;20489;-73
2021/01/21 11:02:26;;;;;;;0.60;0.50;;;14.70;99.90;;;;;;5068599;28;20212;-74
2021/01/21 11:04:52;;;;;;;2.47;0.73;;;14.60;99.90;;;;;;5062638;28;20279;-73
2021/01/21 11:07:17;;;;;;;0.90;0.70;;;14.70;99.90;;;;;;5062146;28;20192;-74
2021/01/21 11:09:43;;;;;;;0.70;0.63;;;15.10;99.90;;;;;;5062188;28;20184;-76
2021/01/21 11:12:08;;;;;;;0.80;0.50;;;15.10;99.90;;;;;;5061176;28;20185;-73
2021/01/21 11:14:35;;;;;;;0.60;0.60;;;15.00;99.90;;;;;;5062863;28;20181;-73
2021/01/21 11:17:01;;;;;;;2.30;0.60;;;14.90;99.90;;;;;;5063969;28;20549;-72
2021/01/21 11:19:26;;;;;;;2.27;0.60;;;14.50;99.90;;;;;;5071504;28;20491;-75
2021/01/21 11:21:53;;;;;;;0.77;0.50;;;14.20;99.90;;;;;;5077270;28;20287;-72
2021/01/21 11:24:19;;;;;;;0.50;0.40;;;14.00;99.90;;;;;;5065666;28;20169;-73
2021/01/21 11:26:44;;;;;;;4.33;0.60;;;14.10;99.90;;;;;;5062526;28;20452;-74
2021/01/21 11:29:10;;;;;;;2.50;0.50;;;14.30;99.90;;;;;;5064846;28;20419;-72
2021/01/21 11:31:35;;;;;;;0.60;0.50;;;14.60;99.90;;;;;;5059614;28;20184;-75
2021/01/21 11:34:01;;;;;;;1.63;0.60;;;14.50;99.90;;;;;;5068828;28;20176;-74
2021/01/21 11:36:26;;;;;;;0.60;0.60;;;14.40;99.90;;;;;;5066423;28;20197;-73
2021/01/21 11:38:52;;;;;;;1.67;0.60;;;14.30;99.90;;;;;;5068959;28;20181;-73
2021/01/21 11:41:17;;;;;;;0.50;0.50;;;14.20;99.90;;;;;;5065615;28;20213;-74
2021/01/21 11:43:43;;;;;;;0.87;0.50;;;14.00;99.90;;;;;;5069180;28;20169;-71
2021/01/21 11:46:08;;;;;;;1.90;0.50;;;14.00;99.90;;;;;;5065843;28;20574;-73
2021/01/21 11:48:34;;;;;;;3.43;0.60;;;14.10;99.90;;;;;;5065822;28;20558;-75
2021/01/21 11:50:59;;;;;;;1.33;0.57;;;13.90;99.90;;;;;;5062769;28;20169;-73
2021/01/21 11:53:26;;;;;;;0.70;0.70;;;13.80;99.90;;;;;;5058772;28;20173;-72
2021/01/21 11:55:51;;;;;;;0.70;0.60;;;13.70;99.90;;;;;;5065258;28;20204;-73
2021/01/21 11:58:17;;;;;;;0.80;0.60;;;13.80;99.90;;;;;;5063276;28;20410;-74
2021/01/21 12:00:42;;;;;;;0.87;0.70;;;13.70;99.90;;;;;;5064032;28;20177;-73
2021/01/21 12:03:08;;;;;;;6.93;1.33;;;13.60;99.90;;;;;;5064924;28;20269;-73
2021/01/21 12:05:33;;;;;;;0.60;0.60;;;13.60;99.90;;;;;;5062970;28;20246;-73
2021/01/21 12:07:59;;;;;;;0.93;0.53;;;13.40;99.90;;;;;;5064361;28;20588;-73
2021/01/21 12:10:24;;;;;;;1.30;0.90;;;13.50;99.90;;;;;;5062619;28;20174;-74
2021/01/21 12:12:50;;;;;;;2.20;0.60;;;13.30;99.90;;;;;;5064676;28;20242;-73
2021/01/21 12:15:16;;;;;;;0.70;0.67;;;13.30;99.90;;;;;;5063748;28;20689;-73
2021/01/21 12:17:42;;;;;;;0.60;0.60;;;13.30;99.90;;;;;;5063085;28;20185;-73
2021/01/21 12:20:08;;;;;;;1.53;0.67;;;13.30;99.90;;;;;;5065044;28;20177;-73
2021/01/21 12:22:34;;;;;;;1.60;0.60;;;13.40;99.90;;;;;;5062481;28;20831;-73
2021/01/21 12:24:59;;;;;;;0.83;0.80;;;13.30;99.90;;;;;;5065484;28;20442;-73
2021/01/21 12:27:25;;;;;;;1.10;0.60;;;13.30;99.90;;;;;;5062080;28;20178;-73
2021/01/21 12:29:50;;;;;;;0.60;0.60;;;13.30;99.90;;;;;;5064585;28;20188;-72
2021/01/21 12:32:16;;;;;;;0.60;0.60;;;13.40;99.90;;;;;;5063496;28;20177;-73
2021/01/21 12:34:41;;;;;;;1.47;0.80;;;13.50;99.90;;;;;;5063169;28;20189;-73
2021/01/21 12:37:07;;;;;;;0.60;0.50;;;13.50;99.90;;;;;;5063057;28;20164;-73
2021/01/21 12:39:32;;;;;;;0.70;0.70;;;13.50;99.90;;;;;;5062210;28;20181;-73
2021/01/21 12:41:58;;;;;;;1.00;0.77;;;13.50;99.90;;;;;;5065159;28;20212;-73
2021/01/21 12:44:23;;;;;;;3.40;1.33;;;13.50;99.90;;;;;;5060695;28;20554;-71
2021/01/21 12:46:49;;;;;;;3.00;1.03;;;13.60;99.90;;;;;;5063783;28;20188;-73
2021/01/21 12:49:15;;;;;;;2.07;1.10;;;13.70;99.90;;;;;;5063288;28;20177;-73
2021/01/21 12:51:40;;;;;;;0.93;0.80;;;13.70;99.90;;;;;;5061379;28;20178;-73
2021/01/21 12:54:06;;;;;;;1.83;1.37;;;13.60;99.90;;;;;;5068319;28;20280;-73